Time;durP1;ratioP1;P1;durP2;ratioP2;P2;SDS_P1;SDS_P2;PMS_P1;PMS_P2;Temp;Humidity;BMP_temperature;BMP_pressure;BME280_temperature;BME280_humidity;BME280_pressure;Samples;Min_cycle;Max_cycle;Signal;HPM_P1;HPM_P2
2022/11/27 00:01:14;;;;;;;24.55;5.90;;;6.20;99.90;;;;;;4991128;28;20046;-80
2022/11/27 00:03:41;;;;;;;21.70;5.75;;;6.20;99.90;;;;;;4991376;28;20050;-80
2022/11/27 00:06:07;;;;;;;23.63;5.88;;;6.20;99.90;;;;;;4992481;28;20133;-79
2022/11/27 00:08:33;;;;;;;25.05;6.72;;;6.10;99.90;;;;;;4992288;28;20073;-77
2022/11/27 00:11:11;;;;;;;22.15;5.53;;;6.10;99.90;;;;;;4992432;28;20082;-78
2022/11/27 00:13:37;;;;;;;24.25;5.57;;;6.10;99.90;;;;;;4990285;28;20050;-78
2022/11/27 00:16:03;;;;;;;24.42;6.45;;;6.10;99.90;;;;;;4992473;28;20397;-80
2022/11/27 00:18:29;;;;;;;26.20;6.10;;;6.10;99.90;;;;;;4991903;28;20042;-79
2022/11/27 00:20:54;;;;;;;27.10;5.68;;;6.00;99.90;;;;;;4990544;28;20058;-80
2022/11/27 00:23:20;;;;;;;22.33;5.80;;;6.10;99.90;;;;;;4992460;28;20486;-80
2022/11/27 00:25:50;;;;;;;24.20;6.28;;;6.00;99.90;;;;;;4991554;28;20054;-78
2022/11/27 00:28:16;;;;;;;22.38;5.90;;;6.10;99.90;;;;;;4990498;28;20141;-80
2022/11/27 00:30:41;;;;;;;20.23;5.88;;;6.40;99.90;;;;;;4992088;28;20125;-77
2022/11/27 00:33:07;;;;;;;16.95;5.47;;;6.00;99.90;;;;;;4992170;28;20093;-79
2022/11/27 00:35:33;;;;;;;25.40;6.20;;;6.00;99.90;;;;;;4990690;28;20494;-79
2022/11/27 00:37:58;;;;;;;20.67;6.05;;;6.00;99.90;;;;;;4992039;28;20049;-79
2022/11/27 00:40:24;;;;;;;24.02;6.43;;;6.00;99.90;;;;;;5006900;28;20133;-77
2022/11/27 00:42:49;;;;;;;17.27;6.32;;;5.90;99.90;;;;;;4989830;28;20084;-79
2022/11/27 00:45:15;;;;;;;28.77;7.35;;;5.90;99.90;;;;;;4990644;28;20050;-78
2022/11/27 00:47:41;;;;;;;24.95;6.00;;;5.90;99.90;;;;;;4990259;28;20524;-77
2022/11/27 00:50:07;;;;;;;25.95;6.40;;;5.90;99.90;;;;;;4991903;28;20125;-77
2022/11/27 00:52:33;;;;;;;29.25;6.43;;;5.80;99.90;;;;;;4991607;28;20100;-79
2022/11/27 00:54:58;;;;;;;25.73;6.32;;;5.80;99.90;;;;;;4990236;28;20478;-79
2022/11/27 00:57:24;;;;;;;20.15;6.85;;;5.80;99.90;;;;;;4991605;28;20074;-78
2022/11/27 00:59:50;;;;;;;23.45;6.50;;;5.80;99.90;;;;;;4991514;28;20054;-80
2022/11/27 01:02:16;;;;;;;18.45;6.15;;;5.80;99.90;;;;;;4991318;28;20406;-78
2022/11/27 01:04:44;;;;;;;15.80;5.80;;;5.70;99.90;;;;;;4989454;28;20509;-79
2022/11/27 01:07:10;;;;;;;31.30;7.18;;;5.70;99.90;;;;;;4990269;28;20050;-78
2022/11/27 01:09:36;;;;;;;16.02;5.88;;;5.70;99.90;;;;;;4990608;28;20038;-79
2022/11/27 01:12:02;;;;;;;20.48;6.82;;;5.70;99.90;;;;;;4991034;28;20457;-78
2022/11/27 01:14:27;;;;;;;18.98;6.53;;;5.60;99.90;;;;;;4988894;28;20050;-77
2022/11/27 01:16:53;;;;;;;19.17;6.75;;;5.60;99.90;;;;;;4991012;28;20065;-77
2022/11/27 01:19:19;;;;;;;20.08;6.13;;;5.60;99.90;;;;;;4990839;28;20144;-80
2022/11/27 01:21:45;;;;;;;17.35;6.05;;;5.60;99.90;;;;;;4990345;28;20154;-79
2022/11/27 01:24:12;;;;;;;22.60;6.35;;;5.50;99.90;;;;;;4990722;28;20145;-78
2022/11/27 01:26:38;;;;;;;21.35;6.35;;;5.50;99.90;;;;;;4990707;28;20077;-77
2022/11/27 01:29:04;;;;;;;24.02;6.93;;;5.50;99.90;;;;;;4990263;28;20042;-79
2022/11/27 01:31:32;;;;;;;19.70;6.55;;;5.50;99.90;;;;;;4990414;28;20130;-78
2022/11/27 01:34:06;;;;;;;18.42;6.57;;;5.50;99.90;;;;;;4990756;28;20046;-79
2022/11/27 01:36:33;;;;;;;20.20;6.00;;;5.50;99.90;;;;;;4990695;28;20133;-77
2022/11/27 01:38:59;;;;;;;20.52;6.53;;;5.50;99.90;;;;;;4990230;28;20046;-79
2022/11/27 01:41:28;;;;;;;19.45;5.93;;;5.40;99.90;;;;;;4988990;28;20101;-78
2022/11/27 01:43:59;;;;;;;19.88;6.40;;;5.40;99.90;;;;;;4990192;28;20103;-81
2022/11/27 01:46:43;;;;;;;24.35;6.20;;;5.40;99.90;;;;;;4990486;28;20049;-79
2022/11/27 01:49:09;;;;;;;22.52;5.78;;;5.40;99.90;;;;;;4989029;28;20402;-78
2022/11/27 01:51:51;;;;;;;19.00;5.97;;;5.30;99.90;;;;;;4990323;28;20065;-78
2022/11/27 01:54:20;;;;;;;17.95;6.45;;;5.30;99.90;;;;;;4990177;28;20125;-80
2022/11/27 01:56:49;;;;;;;25.20;6.20;;;5.30;99.90;;;;;;4990336;28;20085;-78
2022/11/27 01:59:16;;;;;;;22.65;6.55;;;5.50;99.90;;;;;;4988327;28;20058;-79
2022/11/27 02:01:42;;;;;;;23.02;5.93;;;5.30;99.90;;;;;;4970772;28;20050;-77
2022/11/27 02:04:07;;;;;;;20.83;6.63;;;5.60;99.90;;;;;;4975114;28;20061;-78
2022/11/27 02:06:33;;;;;;;22.00;6.45;;;5.30;99.90;;;;;;4990220;28;20038;-76
2022/11/27 02:08:59;;;;;;;20.58;5.45;;;5.30;99.90;;;;;;4989907;28;20050;-78
2022/11/27 02:11:25;;;;;;;20.83;5.97;;;5.50;99.90;;;;;;4990523;28;20200;-77
2022/11/27 02:14:10;;;;;;;17.00;6.07;;;5.30;99.90;;;;;;4988940;28;20050;-79
2022/11/27 02:17:05;;;;;;;18.45;5.88;;;5.30;99.90;;;;;;4990562;28;20050;-79
2022/11/27 02:19:52;;;;;;;15.60;5.90;;;5.30;99.90;;;;;;4989828;28;20458;-78
2022/11/27 02:22:55;;;;;;;23.80;5.75;;;5.30;99.90;;;;;;4990894;28;20453;-79
2022/11/27 02:25:40;;;;;;;16.95;5.90;;;5.30;99.90;;;;;;4990751;28;20516;-77
2022/11/27 02:28:51;;;;;;;17.85;6.18;;;5.30;99.90;;;;;;4990337;28;20482;-80
2022/11/27 02:31:33;;;;;;;22.45;6.65;;;5.40;99.90;;;;;;4951682;28;20055;-78
2022/11/27 02:34:28;;;;;;;23.00;6.63;;;5.90;99.90;;;;;;4968433;28;20051;-79
2022/11/27 02:37:01;;;;;;;13.88;5.78;;;5.40;99.90;;;;;;4933226;28;20094;-78
2022/11/27 02:39:36;;;;;;;20.48;6.18;;;5.30;99.90;;;;;;4948125;29;20081;-78
2022/11/27 02:42:13;;;;;;;21.42;6.93;;;5.40;99.90;;;;;;4913956;29;20055;-76
2022/11/27 02:44:46;;;;;;;25.27;6.68;;;5.40;99.90;;;;;;4913665;29;20060;-80
2022/11/27 02:47:14;;;;;;;26.98;6.50;;;5.40;99.90;;;;;;4929536;29;20083;-79
2022/11/27 02:49:41;;;;;;;16.90;6.65;;;5.40;99.90;;;;;;4911687;29;20158;-78
2022/11/27 02:52:11;;;;;;;19.90;6.63;;;5.40;99.90;;;;;;4894900;29;20052;-77
2022/11/27 02:54:39;;;;;;;18.50;6.65;;;5.40;99.90;;;;;;4895188;29;20538;-81
2022/11/27 02:57:07;;;;;;;17.45;6.20;;;5.40;99.90;;;;;;4902491;29;20056;-78
2022/11/27 02:59:35;;;;;;;13.85;6.55;;;5.50;99.90;;;;;;4910521;29;20304;-76
2022/11/27 03:02:07;;;;;;;25.60;6.25;;;5.40;99.90;;;;;;4921253;29;20586;-77
2022/11/27 03:04:42;;;;;;;23.67;6.40;;;5.40;99.90;;;;;;4932044;29;20126;-78
2022/11/27 03:07:30;;;;;;;;;;;5.40;99.90;;;;;;4953409;28;20489;-78
2022/11/27 03:10:02;;;;;;;16.52;6.10;;;5.50;99.90;;;;;;4967567;28;19926;-79
2022/11/27 03:12:27;;;;;;;14.30;6.15;;;5.50;99.90;;;;;;4966743;28;20070;-80
2022/11/27 03:14:53;;;;;;;18.65;6.60;;;5.50;99.90;;;;;;5003313;28;20062;-79
2022/11/27 03:17:49;;;;;;;21.25;6.90;;;6.30;99.90;;;;;;4989105;28;20053;-77
2022/11/27 03:20:24;;;;;;;19.83;6.88;;;5.50;99.90;;;;;;4988764;28;20592;-78
2022/11/27 03:22:51;;;;;;;23.75;6.88;;;5.50;99.90;;;;;;4987386;28;20133;-79
2022/11/27 03:25:16;;;;;;;15.10;6.82;;;5.50;99.90;;;;;;4987126;28;20505;-80
2022/11/27 03:28:00;;;;;;;25.52;6.55;;;5.50;99.90;;;;;;4988944;28;20121;-79
2022/11/27 03:30:25;;;;;;;22.13;7.03;;;5.50;99.90;;;;;;4987840;28;20046;-81
2022/11/27 03:32:51;;;;;;;15.70;5.82;;;5.60;99.90;;;;;;4990994;28;20517;-77
2022/11/27 03:35:20;;;;;;;24.20;6.50;;;5.60;99.90;;;;;;4992384;28;20076;-78
2022/11/27 03:37:47;;;;;;;21.80;5.90;;;5.60;99.90;;;;;;4992078;28;20477;-80
2022/11/27 03:40:13;;;;;;;19.40;6.18;;;5.60;99.90;;;;;;4991257;28;20054;-77
2022/11/27 03:43:05;;;;;;;21.48;6.55;;;5.60;99.90;;;;;;4978379;28;20190;-80
2022/11/27 03:45:44;;;;;;;18.73;5.78;;;5.60;99.90;;;;;;4982006;28;20073;-78
2022/11/27 03:48:16;;;;;;;17.25;5.43;;;6.50;99.90;;;;;;4973433;28;20498;-78
2022/11/27 03:50:47;;;;;;;14.43;5.85;;;5.60;99.90;;;;;;4975433;28;20042;-79
2022/11/27 03:53:39;;;;;;;17.27;5.75;;;5.60;99.90;;;;;;4991212;28;20054;-77
2022/11/27 03:56:09;;;;;;;19.00;5.68;;;5.60;99.90;;;;;;4992235;28;20129;-77
2022/11/27 03:59:15;;;;;;;19.33;5.95;;;5.60;99.90;;;;;;4992478;28;20180;-77
2022/11/27 04:01:40;;;;;;;;;;;5.70;99.90;;;;;;4968009;28;20125;-77
2022/11/27 04:04:06;;;;;;;19.60;5.22;;;5.60;99.90;;;;;;4953959;28;20421;-78
2022/11/27 04:06:32;;;;;;;19.05;5.20;;;5.80;99.90;;;;;;4969987;28;20262;-78
2022/11/27 04:08:58;;;;;;;17.95;5.55;;;5.60;99.90;;;;;;4970360;28;20170;-77
2022/11/27 04:11:23;;;;;;;15.32;5.22;;;5.70;99.90;;;;;;4970319;28;20046;-77
2022/11/27 04:13:51;;;;;;;18.38;4.93;;;5.70;99.90;;;;;;4969948;28;20063;-77
2022/11/27 04:16:17;;;;;;;11.77;4.80;;;5.70;99.90;;;;;;4953521;28;20145;-81
2022/11/27 04:18:43;;;;;;;17.83;5.38;;;5.70;99.90;;;;;;4970496;28;20067;-77
2022/11/27 04:21:08;;;;;;;13.75;4.57;;;5.70;99.90;;;;;;4969790;28;20142;-78
2022/11/27 04:23:36;;;;;;;16.08;4.95;;;5.70;99.90;;;;;;4969536;28;20234;-77
2022/11/27 04:26:02;;;;;;;15.75;5.07;;;5.80;99.90;;;;;;4938015;28;20067;-80
2022/11/27 04:28:28;;;;;;;13.98;5.05;;;5.70;99.90;;;;;;4954007;28;20137;-82
2022/11/27 04:30:53;;;;;;;11.20;4.43;;;5.70;99.90;;;;;;4970051;28;20043;-81
2022/11/27 04:33:20;;;;;;;18.45;4.95;;;5.70;99.90;;;;;;4984572;28;20062;-80
2022/11/27 04:35:45;;;;;;;17.08;5.32;;;5.70;99.90;;;;;;4987137;28;20050;-81
2022/11/27 04:38:11;;;;;;;15.68;4.75;;;5.70;99.90;;;;;;4973907;28;20048;-80
2022/11/27 04:40:36;;;;;;;18.40;4.95;;;5.70;99.90;;;;;;4991756;28;20054;-76
2022/11/27 04:43:02;;;;;;;14.77;4.95;;;5.70;99.90;;;;;;4991141;28;20046;-80
2022/11/27 04:45:28;;;;;;;16.08;4.40;;;6.20;99.90;;;;;;4991360;28;20046;-79
2022/11/27 04:47:53;;;;;;;17.33;4.53;;;5.70;99.90;;;;;;4991506;28;20053;-78
2022/11/27 04:50:19;;;;;;;15.90;5.15;;;5.70;99.90;;;;;;4990646;28;20054;-77
2022/11/27 04:52:45;;;;;;;12.60;3.90;;;5.90;99.90;;;;;;4990739;28;20568;-79
2022/11/27 04:55:10;;;;;;;10.60;4.32;;;5.70;99.90;;;;;;4991049;28;20053;-81
2022/11/27 04:57:36;;;;;;;14.60;4.38;;;5.70;99.90;;;;;;4989891;28;20048;-80
2022/11/27 05:00:04;;;;;;;16.05;4.70;;;5.70;99.90;;;;;;4991212;28;20038;-80
2022/11/27 05:02:30;;;;;;;17.90;4.65;;;5.70;99.90;;;;;;4990843;28;20078;-79
2022/11/27 05:04:55;;;;;;;11.65;4.30;;;5.60;99.90;;;;;;4989413;28;20074;-79
2022/11/27 05:07:21;;;;;;;16.55;5.13;;;5.60;99.90;;;;;;4991015;28;20041;-77
2022/11/27 05:09:46;;;;;;;18.20;4.65;;;5.70;99.90;;;;;;5006108;28;20097;-78
2022/11/27 05:12:12;;;;;;;16.38;4.85;;;5.60;99.90;;;;;;4986482;28;20061;-77
2022/11/27 05:14:38;;;;;;;14.18;5.03;;;5.60;99.90;;;;;;4971785;28;20050;-75
2022/11/27 05:17:03;;;;;;;16.30;4.40;;;5.60;99.90;;;;;;4986414;28;20129;-78
2022/11/27 05:19:30;;;;;;;12.57;4.13;;;5.60;99.90;;;;;;4988975;28;20465;-78
2022/11/27 05:21:57;;;;;;;16.45;4.93;;;5.60;99.90;;;;;;4990546;28;20061;-78
2022/11/27 05:24:25;;;;;;;15.32;4.85;;;6.40;99.90;;;;;;4989303;28;20058;-79
2022/11/27 05:26:51;;;;;;;12.45;3.75;;;5.60;99.90;;;;;;4978521;28;20129;-78
2022/11/27 05:29:17;;;;;;;12.02;4.45;;;5.60;99.90;;;;;;4990516;28;20046;-78
2022/11/27 05:31:43;;;;;;;14.23;4.28;;;6.10;99.90;;;;;;4989378;28;20062;-80
2022/11/27 05:34:09;;;;;;;15.43;4.60;;;6.00;99.90;;;;;;4990477;28;20099;-78
2022/11/27 05:36:35;;;;;;;14.93;4.50;;;5.50;99.90;;;;;;4990389;28;20102;-78
2022/11/27 05:39:02;;;;;;;14.68;4.65;;;5.50;99.90;;;;;;4990364;28;20073;-78
2022/11/27 05:41:28;;;;;;;16.48;4.60;;;5.50;99.90;;;;;;4990455;28;20062;-80
2022/11/27 05:43:54;;;;;;;17.48;4.53;;;5.50;99.90;;;;;;4988872;28;20058;-80
2022/11/27 05:46:21;;;;;;;16.60;4.85;;;5.50;99.90;;;;;;4989185;28;20046;-80
2022/11/27 05:48:47;;;;;;;9.77;3.80;;;5.50;99.90;;;;;;4989924;28;20042;-79
2022/11/27 05:51:14;;;;;;;10.52;3.92;;;5.50;99.90;;;;;;4990247;28;20133;-78
2022/11/27 05:53:40;;;;;;;13.65;4.25;;;5.80;99.90;;;;;;4988439;28;20053;-79
2022/11/27 05:56:09;;;;;;;12.18;4.28;;;5.50;99.90;;;;;;4988646;28;20461;-78
2022/11/27 05:58:37;;;;;;;15.68;4.30;;;5.50;99.90;;;;;;4989720;28;20054;-79
2022/11/27 06:01:03;;;;;;;9.75;3.47;;;5.50;99.90;;;;;;4990201;28;20409;-80
2022/11/27 06:03:29;;;;;;;16.58;3.88;;;5.50;99.90;;;;;;4990109;28;20047;-80
2022/11/27 06:05:54;;;;;;;20.95;4.65;;;5.50;99.90;;;;;;4988787;28;20050;-80
2022/11/27 06:08:20;;;;;;;18.15;4.53;;;5.50;99.90;;;;;;4989959;28;20406;-79
2022/11/27 06:10:47;;;;;;;15.07;4.60;;;5.50;99.90;;;;;;4990282;28;20050;-79
2022/11/27 06:13:13;;;;;;;9.98;3.50;;;5.70;99.90;;;;;;4989081;28;20137;-79
2022/11/27 06:15:39;;;;;;;14.27;4.22;;;5.50;99.90;;;;;;4990162;28;20042;-78
2022/11/27 06:18:06;;;;;;;11.98;3.38;;;5.50;99.90;;;;;;4990680;28;20089;-77
2022/11/27 06:20:32;;;;;;;13.57;3.83;;;5.50;99.90;;;;;;4985083;28;20070;-79
2022/11/27 06:22:58;;;;;;;8.45;4.00;;;5.50;99.90;;;;;;4984353;28;20054;-77
2022/11/27 06:25:25;;;;;;;12.13;4.07;;;5.50;99.90;;;;;;4988442;28;20101;-77
2022/11/27 06:27:51;;;;;;;11.75;3.85;;;5.50;99.90;;;;;;4990750;28;20058;-79
2022/11/27 06:30:17;;;;;;;12.73;3.80;;;5.50;99.90;;;;;;4990332;28;20109;-77
2022/11/27 06:32:43;;;;;;;13.52;4.20;;;5.50;99.90;;;;;;4990288;28;20057;-79
2022/11/27 06:35:09;;;;;;;11.00;4.45;;;5.50;99.90;;;;;;4985555;28;20039;-78
2022/11/27 06:37:35;;;;;;;12.02;4.15;;;5.50;99.90;;;;;;4990102;28;20050;-80
2022/11/27 06:40:01;;;;;;;9.15;3.35;;;5.50;99.90;;;;;;4990132;28;20763;-76
2022/11/27 06:42:30;;;;;;;10.98;3.67;;;5.50;99.90;;;;;;4990466;28;20046;-78
2022/11/27 06:44:56;;;;;;;11.65;3.85;;;5.50;99.90;;;;;;4988971;28;20054;-79
2022/11/27 06:47:22;;;;;;;14.35;4.10;;;5.50;99.90;;;;;;4988755;28;20065;-75
2022/11/27 06:49:48;;;;;;;16.95;3.83;;;5.60;99.90;;;;;;4990045;28;20050;-78
2022/11/27 06:52:14;;;;;;;14.88;3.97;;;5.60;99.90;;;;;;4989620;28;20050;-79
2022/11/27 06:54:39;;;;;;;15.32;4.10;;;5.60;99.90;;;;;;4988257;28;20053;-80
2022/11/27 06:57:05;;;;;;;10.27;3.60;;;5.60;99.90;;;;;;4989986;28;20104;-77
2022/11/27 06:59:30;;;;;;;10.85;3.58;;;5.60;99.90;;;;;;4990136;28;20058;-79
2022/11/27 07:01:56;;;;;;;12.98;3.35;;;5.60;99.90;;;;;;4989544;28;20421;-78
2022/11/27 07:04:22;;;;;;;15.95;4.03;;;5.60;99.90;;;;;;4989560;28;20046;-78
2022/11/27 07:06:47;;;;;;;9.30;4.03;;;5.70;99.90;;;;;;4992279;28;20053;-79
2022/11/27 07:09:14;;;;;;;9.07;3.05;;;6.00;99.90;;;;;;4993225;28;20573;-79
2022/11/27 07:11:40;;;;;;;8.65;3.28;;;5.60;99.90;;;;;;4993110;28;20092;-77
2022/11/27 07:14:06;;;;;;;15.95;3.80;;;5.60;99.90;;;;;;4993610;28;20054;-77
2022/11/27 07:16:34;;;;;;;10.63;3.40;;;5.60;99.90;;;;;;4993575;28;20379;-80
2022/11/27 07:19:01;;;;;;;8.63;3.33;;;5.60;99.90;;;;;;4993522;28;20108;-79
2022/11/27 07:21:27;;;;;;;13.07;4.40;;;5.60;99.90;;;;;;4991798;28;20394;-80
2022/11/27 07:23:55;;;;;;;10.23;3.67;;;5.60;99.90;;;;;;4991779;28;20046;-80
2022/11/27 07:26:23;;;;;;;11.00;3.70;;;6.50;99.90;;;;;;5008290;28;20058;-78
2022/11/27 07:28:49;;;;;;;10.50;3.58;;;5.60;99.90;;;;;;4993728;28;20073;-78
2022/11/27 07:31:18;;;;;;;11.93;3.88;;;5.60;99.90;;;;;;4992201;28;20058;-77
2022/11/27 07:33:44;;;;;;;11.30;3.80;;;5.60;99.90;;;;;;4993377;28;20054;-79
2022/11/27 07:36:17;;;;;;;10.18;2.88;;;5.60;99.90;;;;;;4992031;28;20466;-78
2022/11/27 07:38:43;;;;;;;11.98;3.88;;;5.60;99.90;;;;;;4993038;28;20048;-79
2022/11/27 07:41:13;;;;;;;9.82;4.03;;;5.60;99.90;;;;;;4993043;28;20038;-79
2022/11/27 07:43:39;;;;;;;8.75;3.80;;;5.60;99.90;;;;;;4993403;28;20050;-79
2022/11/27 07:46:11;;;;;;;12.13;4.05;;;5.60;99.90;;;;;;4991942;28;20065;-77
2022/11/27 07:48:37;;;;;;;13.30;3.88;;;5.60;99.90;;;;;;4991444;28;20367;-80
2022/11/27 07:51:08;;;;;;;14.15;3.95;;;5.60;99.90;;;;;;4992245;28;20058;-79
2022/11/27 07:53:36;;;;;;;11.25;4.20;;;5.60;99.90;;;;;;4992123;28;20053;-78
2022/11/27 07:56:03;;;;;;;9.70;3.50;;;5.60;99.90;;;;;;4992825;28;20443;-78
2022/11/27 07:58:28;;;;;;;12.93;4.40;;;5.60;99.90;;;;;;4992740;28;20039;-78
2022/11/27 08:00:55;;;;;;;11.60;4.80;;;5.60;99.90;;;;;;4991337;28;20134;-80
2022/11/27 08:03:23;;;;;;;15.15;4.50;;;5.70;99.90;;;;;;4992330;28;20128;-79
2022/11/27 08:05:49;;;;;;;12.82;4.28;;;5.60;99.90;;;;;;4991561;28;20478;-78
2022/11/27 08:08:14;;;;;;;11.75;4.25;;;5.70;99.90;;;;;;4991074;28;20065;-79
2022/11/27 08:10:41;;;;;;;13.02;4.90;;;5.70;99.90;;;;;;4991135;28;20125;-78
2022/11/27 08:13:07;;;;;;;13.05;4.68;;;5.80;99.90;;;;;;4989546;28;20058;-77
2022/11/27 08:15:33;;;;;;;13.68;4.20;;;5.70;99.90;;;;;;4992658;28;20073;-76
2022/11/27 08:17:58;;;;;;;17.55;5.00;;;5.70;99.90;;;;;;4991857;28;20465;-79
2022/11/27 08:20:24;;;;;;;10.40;4.53;;;6.00;99.90;;;;;;4990885;28;20054;-78
2022/11/27 08:22:51;;;;;;;16.42;5.07;;;5.70;99.90;;;;;;4991881;28;20084;-79
2022/11/27 08:25:19;;;;;;;11.00;3.95;;;5.70;99.90;;;;;;4991818;28;20454;-77
2022/11/27 08:27:47;;;;;;;13.00;4.45;;;5.70;99.90;;;;;;4991797;28;20093;-77
2022/11/27 08:30:14;;;;;;;11.98;4.38;;;5.70;99.90;;;;;;4990487;28;20089;-79
2022/11/27 08:32:40;;;;;;;14.55;5.50;;;5.70;99.90;;;;;;4991862;28;20050;-78
2022/11/27 08:35:07;;;;;;;13.55;5.15;;;5.70;99.90;;;;;;4991784;28;20049;-78
2022/11/27 08:37:33;;;;;;;14.48;5.97;;;5.70;99.90;;;;;;4991139;28;20494;-78
2022/11/27 08:39:59;;;;;;;11.63;4.60;;;5.70;99.90;;;;;;4992056;28;20035;-78
2022/11/27 08:42:24;;;;;;;13.40;4.78;;;6.60;99.90;;;;;;4989891;28;20061;-77
2022/11/27 08:44:50;;;;;;;11.70;4.78;;;5.70;99.90;;;;;;4991141;28;20128;-81
2022/11/27 08:47:16;;;;;;;12.07;4.78;;;5.70;99.90;;;;;;4989741;28;20133;-77
2022/11/27 08:49:42;;;;;;;12.73;4.95;;;5.70;99.90;;;;;;4991290;28;20042;-78
2022/11/27 08:52:11;;;;;;;13.35;5.18;;;5.70;99.90;;;;;;4991092;28;20064;-80
2022/11/27 08:54:39;;;;;;;14.63;5.10;;;5.70;99.90;;;;;;4990952;28;20042;-78
2022/11/27 08:57:05;;;;;;;18.30;5.97;;;5.70;99.90;;;;;;4990869;28;20082;-82
2022/11/27 08:59:31;;;;;;;19.00;5.78;;;6.30;99.90;;;;;;4991086;28;20085;-77
2022/11/27 09:01:57;;;;;;;15.13;5.47;;;5.70;99.90;;;;;;4990815;28;20054;-80
2022/11/27 09:04:22;;;;;;;18.08;5.63;;;6.50;99.90;;;;;;4989787;28;20072;-79
2022/11/27 09:06:48;;;;;;;14.90;5.53;;;5.70;99.90;;;;;;4990676;28;20046;-78
2022/11/27 09:09:14;;;;;;;15.68;5.45;;;5.70;99.90;;;;;;4990974;28;20125;-80
2022/11/27 09:11:40;;;;;;;13.23;5.75;;;5.70;99.90;;;;;;4990723;28;20042;-77
2022/11/27 09:14:07;;;;;;;15.88;5.65;;;6.70;99.90;;;;;;4990812;28;20038;-79
2022/11/27 09:16:33;;;;;;;14.25;5.80;;;5.70;99.90;;;;;;4990671;28;20049;-77
2022/11/27 09:18:59;;;;;;;17.60;6.38;;;5.70;99.90;;;;;;4990571;28;20485;-79
2022/11/27 09:21:27;;;;;;;11.73;5.38;;;5.80;99.90;;;;;;4990587;28;20050;-79
2022/11/27 09:23:54;;;;;;;13.48;5.82;;;5.80;99.90;;;;;;4990122;28;20458;-79
2022/11/27 09:26:22;;;;;;;14.23;5.60;;;5.80;99.90;;;;;;4990262;28;20144;-81
2022/11/27 09:28:51;;;;;;;15.90;6.22;;;5.80;99.90;;;;;;5020993;23;20111;-80
2022/11/27 09:31:18;;;;;;;13.23;5.53;;;5.80;99.90;;;;;;5009298;28;20056;-79
2022/11/27 09:33:44;;;;;;;18.05;6.47;;;5.80;99.90;;;;;;5030503;28;20099;-79
2022/11/27 09:36:22;;;;;;;14.77;6.38;;;5.80;99.90;;;;;;5021614;28;20038;-80
2022/11/27 09:38:48;;;;;;;13.32;5.75;;;5.80;99.90;;;;;;5019597;28;20160;-79
2022/11/27 09:41:40;;;;;;;14.20;6.05;;;5.80;99.90;;;;;;5030005;28;20128;-78
2022/11/27 09:44:30;;;;;;;14.38;6.45;;;5.80;99.90;;;;;;5029384;28;20057;-80
2022/11/27 09:46:59;;;;;;;18.55;6.38;;;5.80;99.90;;;;;;5027359;28;20044;-79
2022/11/27 09:49:32;;;;;;;15.30;6.28;;;5.80;99.90;;;;;;5029596;28;20082;-77
2022/11/27 09:52:04;;;;;;;16.40;6.85;;;5.80;99.90;;;;;;5025192;28;20041;-79
2022/11/27 09:54:37;;;;;;;14.25;6.28;;;5.80;99.90;;;;;;5028626;28;20411;-79
2022/11/27 09:57:04;;;;;;;16.00;6.53;;;5.80;99.90;;;;;;5030362;28;20159;-79
2022/11/27 09:59:40;;;;;;;12.73;6.10;;;5.80;99.90;;;;;;5027382;28;20100;-79
2022/11/27 10:02:17;;;;;;;14.18;6.40;;;5.80;99.90;;;;;;5029625;28;20041;-79
2022/11/27 10:04:44;;;;;;;15.60;6.47;;;5.80;99.90;;;;;;5029844;28;20045;-78
2022/11/27 10:07:30;;;;;;;15.18;6.25;;;5.80;99.90;;;;;;5029568;28;20037;-78
2022/11/27 10:10:29;;;;;;;17.27;6.80;;;5.80;99.90;;;;;;5029419;28;20057;-78
2022/11/27 10:13:16;;;;;;;18.75;6.45;;;5.80;99.90;;;;;;4972759;28;20055;-80
2022/11/27 10:15:47;;;;;;;14.85;6.47;;;5.80;99.90;;;;;;4959660;28;20065;-78
2022/11/27 10:18:29;;;;;;;19.27;6.40;;;5.80;99.90;;;;;;4968071;28;20521;-79
2022/11/27 10:21:03;;;;;;;15.52;6.85;;;5.80;99.90;;;;;;4951746;28;20042;-80
2022/11/27 10:23:40;;;;;;;14.57;6.63;;;5.80;99.90;;;;;;4967542;28;20739;-77
2022/11/27 10:26:15;;;;;;;15.02;7.28;;;5.80;99.90;;;;;;4967690;28;20055;-80
2022/11/27 10:28:58;;;;;;;17.83;7.45;;;5.80;99.90;;;;;;4961496;28;20059;-78
2022/11/27 10:31:24;;;;;;;17.15;8.05;;;5.80;99.90;;;;;;4967516;28;20058;-79
2022/11/27 10:33:54;;;;;;;16.40;7.15;;;5.80;99.90;;;;;;4967830;28;20047;-79
2022/11/27 10:36:41;;;;;;;18.23;8.05;;;5.80;99.90;;;;;;4967090;28;20526;-79
2022/11/27 10:39:18;;;;;;;19.40;8.40;;;5.80;99.90;;;;;;4948665;28;20451;-79
2022/11/27 10:42:01;;;;;;;16.55;7.53;;;5.90;99.90;;;;;;4974221;28;20153;-78
2022/11/27 10:44:32;;;;;;;15.88;7.38;;;5.90;99.90;;;;;;4991573;28;20137;-79
2022/11/27 10:47:02;;;;;;;20.70;7.80;;;5.90;99.90;;;;;;4991243;28;20461;-79
2022/11/27 10:49:34;;;;;;;19.42;7.90;;;5.90;99.90;;;;;;5010523;23;20140;-80
2022/11/27 10:52:00;;;;;;;18.08;8.18;;;5.90;99.90;;;;;;5001839;28;20046;-81
2022/11/27 10:54:49;;;;;;;17.15;8.02;;;6.40;99.90;;;;;;5007138;23;20046;-81
2022/11/27 10:57:40;;;;;;;13.95;7.72;;;5.90;99.90;;;;;;5000060;23;20125;-79
2022/11/27 11:00:20;;;;;;;13.93;7.28;;;6.00;99.90;;;;;;4992157;28;20050;-81
2022/11/27 11:02:59;;;;;;;19.13;7.88;;;6.00;99.90;;;;;;4994025;28;20059;-80
2022/11/27 11:05:26;;;;;;;22.63;7.97;;;6.40;99.90;;;;;;4992752;28;20049;-81
2022/11/27 11:08:28;;;;;;;16.02;7.55;;;6.00;99.90;;;;;;4993330;28;20145;-79
2022/11/27 11:10:59;;;;;;;16.70;7.38;;;6.00;99.90;;;;;;4992792;28;20050;-81
2022/11/27 11:13:40;;;;;;;19.50;7.50;;;6.00;99.90;;;;;;4999026;28;20551;-81
2022/11/27 11:16:09;;;;;;;22.00;7.90;;;6.00;99.90;;;;;;5001154;23;20065;-78
2022/11/27 11:18:43;;;;;;;20.08;7.95;;;6.00;99.90;;;;;;5000215;28;20401;-77
2022/11/27 11:21:23;;;;;;;18.13;7.82;;;6.00;99.90;;;;;;5002463;28;20069;-79
2022/11/27 11:24:13;;;;;;;22.00;7.40;;;6.00;99.90;;;;;;5004883;28;20116;-80
2022/11/27 11:26:45;;;;;;;16.77;7.50;;;6.10;99.90;;;;;;4999959;28;20056;-81
2022/11/27 11:29:31;;;;;;;17.95;7.07;;;6.10;99.90;;;;;;5006664;28;20133;-82
2022/11/27 11:32:02;;;;;;;17.70;7.68;;;6.10;99.90;;;;;;5006259;28;20048;-80
2022/11/27 11:34:29;;;;;;;15.10;7.45;;;6.10;99.90;;;;;;5004651;28;20042;-80
2022/11/27 11:37:03;;;;;;;22.65;7.80;;;6.10;99.90;;;;;;5002997;28;20045;-78
2022/11/27 11:39:47;;;;;;;13.82;6.85;;;6.10;99.90;;;;;;5006900;28;20049;-81
2022/11/27 11:42:40;;;;;;;13.63;7.05;;;6.00;99.90;;;;;;5006068;28;20119;-78
2022/11/27 11:45:12;;;;;;;14.82;7.07;;;6.10;99.90;;;;;;5007977;28;20037;-80
2022/11/27 11:48:14;;;;;;;16.55;7.10;;;6.80;99.90;;;;;;5000277;28;20037;-77
2022/11/27 11:50:52;;;;;;;16.83;7.68;;;6.20;99.90;;;;;;5006121;28;20050;-76
2022/11/27 11:53:41;;;;;;;15.52;6.68;;;6.20;99.90;;;;;;5005076;28;20149;-77
2022/11/27 11:56:19;;;;;;;15.38;7.25;;;6.20;99.90;;;;;;5004216;28;20053;-77
2022/11/27 11:59:01;;;;;;;12.80;7.57;;;6.10;99.90;;;;;;5004312;28;20052;-79
2022/11/27 12:01:46;;;;;;;23.55;8.27;;;5.70;99.90;;;;;;5003517;28;20046;-76
2022/11/27 12:04:49;;;;;;;13.05;6.50;;;6.20;99.90;;;;;;4995846;28;21323;-79
2022/11/27 12:08:12;;;;;;;15.70;6.97;;;6.20;99.90;;;;;;5001100;28;21925;-79
2022/11/27 12:10:53;;;;;;;12.40;6.70;;;6.20;99.90;;;;;;4934566;28;20185;-78
2022/11/27 12:14:02;;;;;;;17.30;6.72;;;6.30;99.90;;;;;;4937894;28;20054;-79
2022/11/27 12:16:44;;;;;;;14.98;6.97;;;6.30;99.90;;;;;;4927739;29;20047;-78
2022/11/27 12:19:32;;;;;;;17.08;6.97;;;6.30;99.90;;;;;;4945317;23;20048;-80
2022/11/27 12:22:10;;;;;;;16.65;7.18;;;6.30;99.90;;;;;;4951319;28;20066;-80
2022/11/27 12:24:58;;;;;;;14.98;7.07;;;6.30;99.90;;;;;;4959704;28;20105;-79
2022/11/27 12:28:01;;;;;;;16.35;7.03;;;6.30;99.90;;;;;;4951976;29;20113;-80
2022/11/27 12:30:40;;;;;;;15.07;7.07;;;6.30;99.90;;;;;;4953126;28;20058;-77
2022/11/27 12:33:12;;;;;;;12.75;6.78;;;6.30;99.90;;;;;;4952705;28;20047;-79
2022/11/27 12:36:07;;;;;;;12.02;6.25;;;6.40;99.90;;;;;;4961619;28;20094;-78
2022/11/27 12:38:36;;;;;;;15.40;6.75;;;6.40;99.90;;;;;;4973024;28;20454;-80
2022/11/27 12:41:26;;;;;;;15.55;6.78;;;6.40;99.90;;;;;;4955894;28;20055;-81
2022/11/27 12:43:58;;;;;;;13.60;6.53;;;6.40;99.90;;;;;;4951747;29;20058;-79
2022/11/27 12:46:36;;;;;;;15.77;6.72;;;6.40;99.90;;;;;;4962132;28;20043;-81
2022/11/27 12:49:14;;;;;;;14.55;6.70;;;6.40;99.90;;;;;;4971800;28;20051;-81
2022/11/27 12:52:04;;;;;;;17.42;7.20;;;6.50;99.90;;;;;;4971128;28;20038;-81
2022/11/27 12:55:05;;;;;;;14.90;6.40;;;6.50;99.90;;;;;;4967203;28;20043;-80
2022/11/27 12:57:40;;;;;;;11.80;6.53;;;6.50;99.90;;;;;;4952613;28;20065;-81
2022/11/27 13:00:29;;;;;;;11.60;6.57;;;6.50;99.90;;;;;;4944645;28;20126;-80
2022/11/27 13:03:17;;;;;;;11.32;5.90;;;6.50;99.90;;;;;;4971148;28;20134;-79
2022/11/27 13:05:57;;;;;;;16.30;6.38;;;6.50;99.90;;;;;;4971132;28;20042;-77
2022/11/27 13:08:25;;;;;;;15.88;7.05;;;6.50;99.90;;;;;;4971446;28;20050;-80
2022/11/27 13:10:55;;;;;;;14.65;5.95;;;6.50;99.90;;;;;;4971265;28;20094;-81